Latest Coastal Weather Observations for Broome

IDW60701

Issued at 3:42 am WST Wednesday 25 May 2016 (issued every 10 minutes, with the page automatically refreshed every 10 minutes)

About coastal observations | Map of coastal stations | Coastal observations for WA | Marine services | Other Formats
Station Details ID: 003003 Name: BROOME AIRPORT Lat: -17.95 Lon: 122.24 Height: 7.42 m
Data from the previous 72 hours. | See also: Recent months at Broome
Date/Time
WST
Temp

°C
Wind Pressure Rain
since 9am
mm
Weather Cloud Vis
km
Sea
Height
m
Swell
Dir
 
Speed
knots
Gust
knots
hPa Trend Height
m
Period
s
Dir
25/03:30am 19.9 CALM 0 0 1012.3 - 0.0 - - 10 - - - -
25/03:00am 21.2 SSE 3 4 1012.1 - 0.0 - - 10 - - - -
25/02:30am 22.0 S 2 3 1012.2 - 0.0 - - 10 - - - -
25/02:00am 21.6 S 2 3 1012.5 - 0.0 - - 10 - - - -
25/01:30am 21.3 CALM 0 0 1012.8 - 0.0 - - 10 - - - -
25/01:00am 21.1 CALM 0 0 1013.0 - 0.0 - - 10 - - - -
25/12:30am 21.0 CALM 0 0 1013.0 - 0.0 - - 10 - - - -
25/12:00am 20.8 CALM 0 0 1012.9 - 0.0 - - 10 - - - -
 
Date/Time
WST
Temp

°C
Wind Pressure Rain
since 9am
mm
Weather Cloud Vis
km
Sea
Height
m
Swell
Dir
 
Speed
knots
Gust
knots
hPa Trend Height
m
Period
s
Dir
24/11:30pm 21.4 N 3 3 1013.2 - 0.0 - - 10 - - - -
24/11:00pm 21.0 NNE 4 5 1013.2 - 0.0 - - 10 - - - -
24/10:30pm 21.7 CALM 0 0 1013.3 - 0.0 - - 10 - - - -
24/10:00pm 23.3 WSW 2 4 1013.2 - 0.0 - - 10 - - - -
24/09:30pm 22.7 CALM 0 0 1013.4 - 0.0 - - 10 - - - -
24/09:00pm 25.0 SSW 3 5 1013.4 - 0.0 - - 10 - - - -
24/08:30pm 25.3 SW 5 7 1013.6 - 0.0 - - 10 - - - -
24/08:00pm 25.5 WSW 6 8 1013.6 - 0.0 - - 10 - - - -
24/07:30pm 25.6 SW 7 8 1013.3 - 0.0 - - 10 - - - -
24/07:00pm 25.6 SW 6 8 1013.1 - 0.0 - - 10 - - - -
24/06:30pm 25.9 WSW 7 9 1012.8 - 0.0 - - 10 - - - -
24/06:00pm 26.0 WSW 7 10 1012.5 - 0.0 - - 10 - - - -
24/05:30pm 26.2 WSW 8 10 1012.4 - 0.0 - - 10 - - - -
24/05:00pm 27.0 WSW 9 11 1012.2 - 0.0 - Mostly clear 10 - - - -
24/04:30pm 27.5 WSW 10 14 1012.2 - 0.0 - Mostly clear 10 - - - -
24/04:00pm 28.0 WSW 10 12 1012.2 - 0.0 - Mostly clear 10 - - - -
24/03:30pm 28.8 WSW 8 10 1012.1 - 0.0 - Mostly clear 10 - - - -
24/03:00pm 28.8 W 9 11 1011.8 - 0.0 - Mostly clear 10 - - - -
24/02:30pm 29.2 W 9 12 1011.8 - 0.0 - Mostly clear 10 - - - -
24/02:00pm 29.6 W 8 10 1011.8 - 0.0 - Mostly clear 10 - - - -
24/01:30pm 29.8 W 8 11 1012.2 - 0.0 - Mostly clear 10 - - - -
24/01:00pm 29.8 WSW 5 8 1012.5 - 0.0 - - 10 - - - -
24/12:30pm 28.3 SSE 7 10 1012.8 - 0.0 - - 10 - - - -
24/12:00pm 27.5 SSE 5 8 1013.1 - 0.0 - - 10 - - - -
24/11:30am 27.2 S 5 7 1013.6 - 0.0 - - 10 - - - -
24/11:00am 26.3 S 5 7 1013.9 - 0.0 - - 10 - - - -
24/10:30am 25.4 ESE 5 8 1014.2 - 0.0 - - 10 - - - -
24/10:00am 24.5 SSE 5 7 1014.7 - 0.0 - - 10 - - - -
24/09:30am 24.0 SE 6 7 1015.0 - 0.0 - - 10 - - - -
24/09:00am 23.0 SE 7 9 1014.9 - 0.0 - - 10 - - - -
24/08:30am 22.5 ESE 7 9 1015.0 - 0.0 - - 10 - - - -
24/08:00am 21.5 SE 6 9 1015.1 - 0.0 - Mostly clear 10 - - - -
24/07:30am 20.7 ESE 7 10 1014.8 - 0.0 - - 10 - - - -
24/07:00am 20.2 ESE 5 7 1014.4 - 0.0 - - 10 - - - -
24/06:30am 19.3 ESE 5 6 1014.2 - 0.0 - - 10 - - - -
24/06:00am 19.0 ESE 6 7 1014.0 - 0.0 - - 10 - - - -
24/05:30am 18.7 ESE 5 7 1013.8 - 0.0 - - 10 - - - -
24/05:00am 18.7 ESE 5 6 1013.7 - 0.0 - - 10 - - - -
24/04:30am 18.8 E 5 6 1013.6 - 0.0 - - 10 - - - -
24/04:00am 19.0 E 6 7 1013.5 - 0.0 - - 10 - - - -
24/03:30am 19.2 E 6 7 1013.4 - 0.0 - - 10 - - - -
24/03:00am 19.7 E 7 8 1013.4 - 0.0 - - 10 - - - -
24/02:30am 20.2 ESE 7 8 1013.4 - 0.0 - - 10 - - - -
24/02:00am 20.2 ESE 6 7 1013.3 - 0.0 - - 10 - - - -
24/01:30am 20.1 E 5 7 1013.4 - 0.0 - - 10 - - - -
24/01:00am 20.0 ENE 5 7 1013.6 - 0.0 - - 10 - - - -
24/12:30am 20.0 E 6 7 1013.8 - 0.0 - - 10 - - - -
24/12:00am 20.3 E 4 6 1014.0 - 0.0 - - 10 - - - -
 
Date/Time
WST
Temp

°C
Wind Pressure Rain
since 9am
mm
Weather Cloud Vis
km
Sea
Height
m
Swell
Dir
 
Speed
knots
Gust
knots
hPa Trend Height
m
Period
s
Dir
23/11:30pm 20.5 E 6 8 1014.4 - 0.0 - - 10 - - - -
23/11:00pm 20.7 E 6 7 1014.7 - 0.0 - - 10 - - - -
23/10:30pm 20.9 E 5 7 1015.1 - 0.0 - - 10 - - - -
23/10:00pm 21.2 E 6 7 1015.1 - 0.0 - - 10 - - - -
23/09:30pm 21.6 E 6 8 1015.3 - 0.0 - - 10 - - - -
23/09:00pm 22.1 ESE 7 8 1015.1 - 0.0 - - 10 - - - -
23/08:30pm 22.2 E 6 8 1015.1 - 0.0 - - 10 - - - -
23/08:00pm 22.7 E 7 11 1014.9 - 0.0 - - 10 - - - -
23/07:30pm 23.1 E 8 11 1014.8 - 0.0 - - 10 - - - -
23/07:00pm 23.3 E 7 11 1014.8 - 0.0 - - 10 - - - -
23/06:30pm 23.8 E 9 15 1014.5 - 0.0 - - 10 - - - -
23/06:00pm 24.4 E 9 13 1014.2 - 0.0 - - 10 - - - -
23/05:30pm 25.1 E 10 14 1014.1 - 0.0 - Mostly clear 10 - - - -
23/05:00pm 26.0 E 12 18 1013.7 - 0.0 - Mostly clear 10 - - - -
23/04:30pm 26.8 E 14 20 1013.3 - 0.0 - Mostly clear 10 - - - -
23/04:00pm 27.4 E 16 22 1013.3 - 0.0 - Mostly clear 10 - - - -
23/03:30pm 27.8 E 15 21 1013.1 - 0.0 - Mostly clear 10 - - - -
23/03:00pm 27.8 E 14 19 1013.0 - 0.0 - Partly cloudy 10 - - - -
23/02:30pm 28.8 E 13 19 1013.0 - 0.0 - Mostly clear 10 - - - -
23/02:00pm 29.7 E 13 19 1013.0 - 0.0 - Mostly clear 10 - - - -
23/01:30pm 29.6 E 13 17 1012.9 - 0.0 - Mostly clear 10 - - - -
23/01:00pm 29.8 E 15 21 1013.3 - 0.0 - Mostly clear 10 - - - -
23/12:30pm 29.0 E 13 18 1013.6 - 0.0 - Mostly clear 10 - - - -
23/12:00pm 29.1 E 13 21 1013.8 - 0.0 - Mostly clear 10 - - - -
23/11:30am 28.8 E 14 19 1014.4 - 0.0 - Mostly clear 10 - - - -
23/11:00am 28.5 E 14 20 1014.4 - 0.0 - Mostly clear 10 - - - -
23/10:30am 28.1 E 14 20 1014.5 - 0.0 - Mostly clear 10 - - - -
23/10:00am 27.7 E 13 19 1015.0 - 0.0 - Mostly clear 10 - - - -
23/09:30am 26.6 E 12 16 1015.0 - 0.0 - Mostly clear 10 - - - -
23/09:00am 26.0 ESE 12 17 1015.2 - 1.4 - Mostly clear 10 - - - -
23/08:30am 25.0 ESE 9 13 1015.2 - 1.2 - Mostly clear 10 - - - -
23/08:00am 24.6 ESE 9 13 1014.9 - 1.2 - Mostly clear 10 - - - -
23/07:30am 23.7 ESE 10 13 1014.5 - 1.2 - Partly cloudy 10 - - - -
23/07:00am 23.6 SE 10 14 1014.6 - 1.2 - Partly cloudy 10 - - - -
23/06:30am 23.7 SE 9 13 1014.1 - 1.2 - Partly cloudy 10 - - - -
23/06:00am 23.3 ESE 7 10 1014.0 - 1.2 - Mostly clear 10 - - - -
23/05:30am 23.8 SE 8 12 1013.7 - 1.2 - - 10 - - - -
23/05:00am 24.1 SSE 9 11 1013.8 - 1.2 - - 10 - - - -
23/04:30am 24.3 S 7 10 1013.8 - 1.2 - - 10 - - - -
23/04:00am 24.5 S 6 9 1013.6 - 1.2 - Cloudy 10 - - - -
23/03:30am 24.4 S 5 6 1013.8 - 1.2 - Cloudy 10 - - - -
23/03:00am 24.2 S 5 7 1013.6 - 1.2 - Cloudy 10 - - - -
23/02:30am 22.9 CALM 0 0 1013.9 - 1.2 - Cloudy 10 - - - -
23/02:00am 22.6 CALM 0 0 1014.0 - 1.2 - Partly cloudy 10 - - - -
23/01:30am 22.1 ENE 3 4 1013.7 - 1.2 - - 10 - - - -
23/01:00am 22.5 E 1 4 1014.0 - 1.2 - Partly cloudy 10 - - - -
23/12:30am 22.8 NE 3 4 1014.2 - 1.2 - Cloudy 10 - - - -
23/12:00am 22.8 ENE 5 6 1014.1 - 1.2 - Cloudy 10 - - - -
 
Date/Time
WST
Temp

°C
Wind Pressure Rain
since 9am
mm
Weather Cloud Vis
km
Sea
Height
m
Swell
Dir
 
Speed
knots
Gust
knots
hPa Trend Height
m
Period
s
Dir
22/11:30pm 22.8 N 3 4 1014.1 - 1.2 - Cloudy 10 - - - -
22/11:00pm 22.7 NE 3 4 1014.3 - 1.2 - Partly cloudy 10 - - - -
22/10:30pm 22.7 E 3 4 1014.2 - 1.2 - Cloudy 10 - - - -
22/10:00pm 22.7 E 4 5 1013.9 - 1.2 - Cloudy 10 - - - -
22/09:30pm 22.8 E 3 4 1014.1 - 1.2 - Cloudy 10 - - - -
22/09:00pm 22.7 E 4 6 1013.6 - 1.2 - Cloudy 10 - - - -
22/08:30pm 22.9 NNE 4 5 1014.0 - 1.2 - Cloudy 10 - - - -
22/08:00pm 23.3 E 5 6 1013.7 - 1.2 - Cloudy 10 - - - -
22/07:30pm 23.2 E 6 9 1013.6 - 1.2 - Partly cloudy 10 - - - -
22/07:00pm 23.5 SE 7 9 1013.5 - 1.2 - Partly cloudy 10 - - - -
22/06:30pm 23.5 SE 7 10 1013.4 - 1.2 - Cloudy 10 - - - -
22/06:00pm 22.7 ESE 9 12 1013.3 - 1.2 - Cloudy 10 - - - -
22/05:30pm 22.3 E 7 9 1013.8 - 1.2 - Partly cloudy 10 - - - -
22/05:00pm 22.2 NNE 9 12 1014.0 - 1.0 - Partly cloudy 9 - - - -
22/04:30pm 23.0 N 9 14 1013.7 - 0.0 - Partly cloudy 10 - - - -
22/04:00pm 24.6 N 9 13 1013.2 - 0.0 - Partly cloudy 10 - - - -
22/03:30pm 25.0 NNW 12 17 1012.8 - 0.0 - Partly cloudy 10 - - - -
22/03:00pm 26.2 W 7 9 1012.5 - 0.0 - Cloudy 10 - - - -
22/02:30pm 25.8 WSW 12 18 1012.1 - 0.0 - Cloudy 10 - - - -
22/02:00pm 25.9 WSW 13 18 1012.5 - 0.0 - Partly cloudy 10 - - - -
22/01:30pm 27.5 WSW 12 15 1012.5 - 0.0 - Partly cloudy 10 - - - -
22/01:00pm 27.4 WSW 15 21 1012.5 - 0.0 - Partly cloudy 10 - - - -
22/12:30pm 27.4 W 11 15 1013.0 - 0.0 - Partly cloudy 10 - - - -
22/12:00pm 27.1 W 11 14 1013.4 - 0.0 - Cloudy 10 - - - -
22/11:30am 28.9 WSW 3 5 1013.6 - 0.0 - Partly cloudy 10 - - - -
22/11:00am 28.4 E 2 4 1013.7 - 0.0 - Partly cloudy 10 - - - -
22/10:30am 27.5 SE 4 6 1014.0 - 0.0 - Partly cloudy 10 - - - -
22/10:00am 27.3 SE 4 6 1014.3 - 0.0 - Partly cloudy 10 - - - -
22/09:30am 26.3 E 6 7 1014.4 - 0.0 - Cloudy 10 - - - -
22/09:00am 26.0 ESE 7 9 1013.9 - 0.0 - Mostly cloudy 10 - - - -
22/08:30am 25.8 ESE 7 9 1013.8 - 0.0 - Partly cloudy 10 - - - -
22/08:00am 25.4 SE 6 9 1013.7 - 0.0 - Cloudy 10 - - - -
22/07:30am 24.7 ESE 4 6 1013.5 - 0.0 - Partly cloudy 10 - - - -
22/07:00am 23.5 ESE 4 5 1013.5 - 0.0 - Partly cloudy 10 - - - -
22/06:30am 22.5 NNE 3 4 1013.2 - 0.0 - - 10 - - - -
22/06:00am 22.3 CALM 0 0 1012.7 - 0.0 - - 10 - - - -
22/05:30am 22.3 CALM 0 0 1012.5 - 0.0 - - 10 - - - -
22/05:00am 22.4 CALM 0 0 1012.2 - 0.0 - - 10 - - - -
22/04:30am 22.3 N 1 3 1012.2 - 0.0 - - 10 - - - -
22/04:00am 22.7 N 3 3 1012.2 - 0.0 - - 10 - - - -

Other Formats:

Comma delimited format used in spreadsheet applications
http://www.bom.gov.au/fwo/IDW60701/IDW60701.94203.axf

JavaScript Object Notation format (JSON) in row-major order
http://www.bom.gov.au/fwo/IDW60701/IDW60701.94203.json